Time,TemperatureF,DewpointF,PressureIn,WindDirection,WindDirectionDegrees,WindSpeedMPH,WindSpeedGustMPH,Humidity,HourlyPrecipIn,Conditions,Clouds,dailyrainin,SoftwareType,DateUTC
2013-04-14 00:12:00,48.5,44.0,29.90,SSW,200,1.0,2.0,83,0.00,,,0.00,weatherlink.com 1.10,2013-04-14 04:12:00,
2013-04-14 00:27:00,48.5,44.0,29.90,SE,141,0.0,3.0,83,0.00,,,0.00,weatherlink.com 1.10,2013-04-14 04:27:00,
2013-04-14 00:42:00,48.5,44.0,29.91,SSE,167,0.0,2.0,84,0.00,,,0.00,weatherlink.com 1.10,2013-04-14 04:42:00,
2013-04-14 00:57:00,48.5,44.0,29.91,SSE,167,0.0,2.0,85,0.00,,,0.00,weatherlink.com 1.10,2013-04-14 04:57:00,
2013-04-14 01:12:00,48.6,45.0,29.91,SSE,166,0.0,0.0,86,0.00,,,0.00,weatherlink.com 1.10,2013-04-14 05:12:00,
2013-04-14 01:27:00,48.6,45.0,29.90,West,276,0.0,2.0,86,0.00,,,0.00,weatherlink.com 1.10,2013-04-14 05:27:00,
2013-04-14 01:42:00,48.7,45.0,29.90,SSE,159,0.0,3.0,86,0.00,,,0.00,weatherlink.com 1.10,2013-04-14 05:42:00,
2013-04-14 01:57:00,48.9,45.0,29.91,SSE,164,2.0,3.0,85,0.00,,,0.00,weatherlink.com 1.10,2013-04-14 05:57:00,
2013-04-14 02:12:00,49.1,45.0,29.90,SSW,205,0.0,2.0,84,0.00,,,0.00,weatherlink.com 1.10,2013-04-14 06:12:00,
2013-04-14 02:27:00,49.4,44.0,29.89,SSE,162,0.0,3.0,83,0.00,,,0.00,weatherlink.com 1.10,2013-04-14 06:27:00,
2013-04-14 02:42:00,51.0,45.0,29.89,SW,231,2.0,3.0,79,0.00,,,0.00,weatherlink.com 1.10,2013-04-14 06:42:00,
2013-04-14 02:57:00,55.7,45.0,29.89,SSE,165,1.0,3.0,68,0.00,,,0.00,weatherlink.com 1.10,2013-04-14 06:57:00,
2013-04-14 03:12:00,51.9,43.0,29.89,SSW,197,1.0,3.0,73,0.00,,,0.00,weatherlink.com 1.10,2013-04-14 07:12:00,
2013-04-14 03:27:00,50.1,43.0,29.89,SSE,153,2.0,2.0,77,0.00,,,0.00,weatherlink.com 1.10,2013-04-14 07:27:00,
2013-04-14 03:42:00,52.2,43.0,29.89,South,173,0.0,3.0,70,0.00,,,0.00,weatherlink.com 1.10,2013-04-14 07:42:00,
2013-04-14 03:57:00,50.1,42.0,29.89,South,169,0.0,0.0,74,0.00,,,0.00,weatherlink.com 1.10,2013-04-14 07:57:00,
2013-04-14 04:12:00,54.4,44.0,29.90,South,172,1.0,3.0,67,0.00,,,0.00,weatherlink.com 1.10,2013-04-14 08:12:00,
2013-04-14 04:27:00,50.8,42.0,29.90,SE,143,0.0,2.0,72,0.00,,,0.00,weatherlink.com 1.10,2013-04-14 08:27:00,
2013-04-14 04:42:00,50.3,42.0,29.90,South,169,2.0,3.0,73,0.00,,,0.00,weatherlink.com 1.10,2013-04-14 08:42:00,
2013-04-14 04:57:00,53.6,41.0,29.90,SSE,155,0.0,3.0,63,0.00,,,0.00,weatherlink.com 1.10,2013-04-14 08:57:00,
2013-04-14 05:12:00,50.6,40.0,29.90,SSE,155,0.0,0.0,68,0.00,,,0.00,weatherlink.com 1.10,2013-04-14 09:12:00,
2013-04-14 05:27:00,52.6,41.0,29.90,South,181,2.0,3.0,65,0.00,,,0.00,weatherlink.com 1.10,2013-04-14 09:27:00,
2013-04-14 05:42:00,51.8,40.0,29.90,SSE,166,0.0,1.0,64,0.00,,,0.00,weatherlink.com 1.10,2013-04-14 09:42:00,
2013-04-14 05:57:00,50.2,40.0,29.91,SSE,166,0.0,0.0,67,0.00,,,0.00,weatherlink.com 1.10,2013-04-14 09:57:00,
2013-04-14 06:12:00,53.2,40.0,29.92,SE,136,1.0,3.0,61,0.00,,,0.00,weatherlink.com 1.10,2013-04-14 10:12:00,
2013-04-14 06:27:00,51.3,38.0,29.92,SSE,150,0.0,2.0,61,0.00,,,0.00,weatherlink.com 1.10,2013-04-14 10:27:00,
2013-04-14 06:42:00,50.1,38.0,29.93,SE,140,0.0,0.0,63,0.00,,,0.00,weatherlink.com 1.10,2013-04-14 10:42:00,
2013-04-14 06:57:00,51.2,38.0,29.93,SE,136,2.0,5.0,61,0.00,,,0.00,weatherlink.com 1.10,2013-04-14 10:57:00,
2013-04-14 07:12:00,51.8,37.0,29.94,WNW,297,1.0,4.0,58,0.00,,,0.00,weatherlink.com 1.10,2013-04-14 11:12:00,
2013-04-14 07:27:00,51.7,36.0,29.94,SSW,204,0.0,3.0,56,0.00,,,0.00,weatherlink.com 1.10,2013-04-14 11:27:00,
2013-04-14 07:42:00,53.0,35.0,29.94,SE,146,2.0,4.0,51,0.00,,,0.00,weatherlink.com 1.10,2013-04-14 11:42:00,
2013-04-14 07:57:00,53.2,33.0,29.95,NW,308,4.0,5.0,47,0.00,,,0.00,weatherlink.com 1.10,2013-04-14 11:57:00,
2013-04-14 08:12:00,53.2,33.0,29.95,ENE,62,0.0,6.0,47,0.00,,,0.00,weatherlink.com 1.10,2013-04-14 12:12:00,
2013-04-14 08:27:00,53.7,34.0,29.95,SSE,155,3.0,6.0,47,0.00,,,0.00,weatherlink.com 1.10,2013-04-14 12:27:00,
2013-04-14 08:42:00,53.8,33.0,29.95,ENE,68,2.0,9.0,45,0.00,,,0.00,weatherlink.com 1.10,2013-04-14 12:42:00,
2013-04-14 08:57:00,53.5,33.0,29.95,NE,51,0.0,6.0,46,0.00,,,0.00,weatherlink.com 1.10,2013-04-14 12:57:00,
2013-04-14 09:12:00,54.1,33.0,29.96,NE,46,3.0,6.0,45,0.00,,,0.00,weatherlink.com 1.10,2013-04-14 13:12:00,
2013-04-14 09:27:00,55.5,33.0,29.95,NE,54,4.0,9.0,42,0.00,,,0.00,weatherlink.com 1.10,2013-04-14 13:27:00,
2013-04-14 09:42:00,55.9,33.0,29.96,NW,318,2.0,8.0,42,0.00,,,0.00,weatherlink.com 1.10,2013-04-14 13:42:00,
2013-04-14 09:57:00,56.2,34.0,29.96,North,4,0.0,4.0,43,0.00,,,0.00,weatherlink.com 1.10,2013-04-14 13:57:00,
2013-04-14 10:12:00,54.7,34.0,29.96,NNW,348,4.0,9.0,45,0.00,,,0.00,weatherlink.com 1.10,2013-04-14 14:12:00,
2013-04-14 10:28:00,54.5,35.0,29.97,North,354,2.0,5.0,48,0.00,,,0.00,weatherlink.com 1.10,2013-04-14 14:28:00,
2013-04-14 10:43:00,55.0,33.0,29.96,NNE,18,0.0,7.0,44,0.00,,,0.00,weatherlink.com 1.10,2013-04-14 14:43:00,
2013-04-14 10:58:00,55.0,32.0,29.97,SW,218,2.0,7.0,42,0.00,,,0.00,weatherlink.com 1.10,2013-04-14 14:58:00,
2013-04-14 11:13:00,55.3,32.0,29.98,ENE,72,2.0,7.0,41,0.00,,,0.00,weatherlink.com 1.10,2013-04-14 15:13:00,
2013-04-14 11:28:00,55.4,30.0,29.98,ENE,67,1.0,8.0,38,0.00,,,0.00,weatherlink.com 1.10,2013-04-14 15:28:00,
2013-04-14 11:43:00,56.1,29.0,29.98,ENE,71,1.0,14.0,36,0.00,,,0.00,weatherlink.com 1.10,2013-04-14 15:43:00,
2013-04-14 11:58:00,55.3,29.0,29.98,North,6,3.0,8.0,36,0.00,,,0.00,weatherlink.com 1.10,2013-04-14 15:58:00,
2013-04-14 12:13:00,57.2,29.0,29.98,NNW,333,9.0,13.0,34,0.00,,,0.00,weatherlink.com 1.10,2013-04-14 16:13:00,
2013-04-14 12:28:00,56.8,27.0,29.98,NE,56,1.0,8.0,32,0.00,,,0.00,weatherlink.com 1.10,2013-04-14 16:28:00,
2013-04-14 12:43:00,57.2,26.0,29.97,SE,134,4.0,14.0,30,0.00,,,0.00,weatherlink.com 1.10,2013-04-14 16:43:00,
2013-04-14 12:58:00,57.9,26.0,29.97,NE,54,5.0,12.0,29,0.00,,,0.00,weatherlink.com 1.10,2013-04-14 16:58:00,
2013-04-14 13:13:00,57.2,25.0,29.98,North,351,3.0,8.0,29,0.00,,,0.00,weatherlink.com 1.10,2013-04-14 17:13:00,
2013-04-14 13:28:00,57.1,25.0,29.97,NW,326,6.0,10.0,29,0.00,,,0.00,weatherlink.com 1.10,2013-04-14 17:28:00,
2013-04-14 13:43:00,57.7,25.0,29.98,North,359,3.0,12.0,29,0.00,,,0.00,weatherlink.com 1.10,2013-04-14 17:43:00,
2013-04-14 13:58:00,57.5,26.0,29.98,NNE,29,6.0,8.0,30,0.00,,,0.00,weatherlink.com 1.10,2013-04-14 17:58:00,
2013-04-14 14:13:00,58.0,26.0,29.98,East,92,3.0,12.0,29,0.00,,,0.00,weatherlink.com 1.10,2013-04-14 18:13:00,
2013-04-14 14:28:00,57.8,26.0,29.98,North,354,6.0,11.0,29,0.00,,,0.00,weatherlink.com 1.10,2013-04-14 18:28:00,
2013-04-14 14:43:00,57.7,25.0,29.98,North,356,4.0,14.0,29,0.00,,,0.00,weatherlink.com 1.10,2013-04-14 18:43:00,
2013-04-14 14:58:00,56.9,26.0,29.98,SE,144,2.0,12.0,30,0.00,,,0.00,weatherlink.com 1.10,2013-04-14 18:58:00,
2013-04-14 15:13:00,56.3,24.0,29.99,North,359,2.0,9.0,29,0.00,,,0.00,weatherlink.com 1.10,2013-04-14 19:13:00,
2013-04-14 15:28:00,57.7,25.0,29.98,WNW,292,3.0,8.0,29,0.00,,,0.00,weatherlink.com 1.10,2013-04-14 19:28:00,
2013-04-14 15:43:00,56.7,25.0,29.98,SSW,203,2.0,13.0,29,0.00,,,0.00,weatherlink.com 1.10,2013-04-14 19:43:00,
2013-04-14 15:58:00,57.7,25.0,29.98,East,97,0.0,6.0,29,0.00,,,0.00,weatherlink.com 1.10,2013-04-14 19:58:00,
2013-04-14 16:13:00,57.4,25.0,29.98,NW,326,3.0,12.0,29,0.00,,,0.00,weatherlink.com 1.10,2013-04-14 20:13:00,
2013-04-14 16:28:00,57.9,25.0,29.98,WSW,244,1.0,8.0,28,0.00,,,0.00,weatherlink.com 1.10,2013-04-14 20:28:00,
2013-04-14 16:43:00,57.1,25.0,29.99,NNW,328,3.0,11.0,29,0.00,,,0.00,weatherlink.com 1.10,2013-04-14 20:43:00,
2013-04-14 16:58:00,57.0,25.0,30.01,ESE,120,2.0,11.0,29,0.00,,,0.00,weatherlink.com 1.10,2013-04-14 20:58:00,
2013-04-14 17:13:00,57.5,26.0,30.01,North,358,3.0,8.0,30,0.00,,,0.00,weatherlink.com 1.10,2013-04-14 21:13:00,
2013-04-14 17:28:00,57.3,26.0,30.01,SE,126,2.0,9.0,30,0.00,,,0.00,weatherlink.com 1.10,2013-04-14 21:28:00,
2013-04-14 17:43:00,57.4,25.0,30.01,WSW,238,2.0,10.0,29,0.00,,,0.00,weatherlink.com 1.10,2013-04-14 21:43:00,
2013-04-14 17:58:00,57.3,26.0,30.01,NE,49,1.0,8.0,30,0.00,,,0.00,weatherlink.com 1.10,2013-04-14 21:58:00,
2013-04-14 18:13:00,55.6,26.0,30.02,North,356,8.0,8.0,32,0.00,,,0.00,weatherlink.com 1.10,2013-04-14 22:13:00,
2013-04-14 18:28:00,55.6,25.0,30.03,North,359,1.0,7.0,31,0.00,,,0.00,weatherlink.com 1.10,2013-04-14 22:28:00,
2013-04-14 18:43:00,54.9,25.0,30.04,NW,309,2.0,6.0,32,0.00,,,0.00,weatherlink.com 1.10,2013-04-14 22:43:00,
2013-04-14 18:58:00,54.7,26.0,30.04,North,359,1.0,5.0,33,0.00,,,0.00,weatherlink.com 1.10,2013-04-14 22:58:00,
2013-04-14 19:13:00,54.0,26.0,30.05,NNW,330,2.0,6.0,34,0.00,,,0.00,weatherlink.com 1.10,2013-04-14 23:13:00,
2013-04-14 19:28:00,55.0,26.0,30.06,NNW,344,2.0,5.0,33,0.00,,,0.00,weatherlink.com 1.10,2013-04-14 23:28:00,
2013-04-14 19:43:00,53.6,26.0,30.07,NNW,343,2.0,6.0,34,0.00,,,0.00,weatherlink.com 1.10,2013-04-14 23:43:00,
2013-04-14 19:59:00,53.2,26.0,30.07,South,170,2.0,7.0,35,0.00,,,0.00,weatherlink.com 1.10,2013-04-14 23:59:00,
2013-04-14 20:14:00,53.5,26.0,30.08,North,10,8.0,8.0,35,0.00,,,0.00,weatherlink.com 1.10,2013-04-15 00:14:00,
2013-04-14 20:29:00,52.8,26.0,30.08,North,360,2.0,7.0,36,0.00,,,0.00,weatherlink.com 1.10,2013-04-15 00:29:00,
2013-04-14 20:44:00,53.0,26.0,30.09,NNW,342,1.0,6.0,35,0.00,,,0.00,weatherlink.com 1.10,2013-04-15 00:44:00,
2013-04-14 20:59:00,51.9,26.0,30.10,NNW,347,2.0,7.0,37,0.00,,,0.00,weatherlink.com 1.10,2013-04-15 00:59:00,
2013-04-14 21:14:00,51.6,27.0,30.10,NNE,13,3.0,7.0,38,0.00,,,0.00,weatherlink.com 1.10,2013-04-15 01:14:00,
2013-04-14 21:29:00,51.1,26.0,30.11,North,359,2.0,9.0,38,0.00,,,0.00,weatherlink.com 1.10,2013-04-15 01:29:00,
2013-04-14 21:44:00,50.7,26.0,30.11,North,6,2.0,6.0,39,0.00,,,0.00,weatherlink.com 1.10,2013-04-15 01:44:00,
2013-04-14 21:59:00,50.4,27.0,30.12,NNE,18,0.0,7.0,40,0.00,,,0.00,weatherlink.com 1.10,2013-04-15 01:59:00,
2013-04-14 22:14:00,50.9,28.0,30.12,NNW,335,1.0,2.0,41,0.00,,,0.00,weatherlink.com 1.10,2013-04-15 02:14:00,
2013-04-14 22:29:00,49.4,28.0,30.12,NW,316,1.0,7.0,43,0.00,,,0.00,weatherlink.com 1.10,2013-04-15 02:29:00,
2013-04-14 22:44:00,49.2,27.0,30.12,NE,45,2.0,7.0,42,0.00,,,0.00,weatherlink.com 1.10,2013-04-15 02:44:00,
2013-04-14 22:59:00,50.1,27.0,30.13,NW,308,0.0,4.0,41,0.00,,,0.00,weatherlink.com 1.10,2013-04-15 02:59:00,
2013-04-14 23:14:00,48.7,28.0,30.13,NW,305,0.0,5.0,45,0.00,,,0.00,weatherlink.com 1.10,2013-04-15 03:14:00,
2013-04-14 23:29:00,48.1,27.0,30.13,NE,34,1.0,7.0,44,0.00,,,0.00,weatherlink.com 1.10,2013-04-15 03:29:00,
2013-04-14 23:44:00,48.8,26.0,30.14,NW,319,2.0,4.0,42,0.00,,,0.00,weatherlink.com 1.10,2013-04-15 03:44:00,
2013-04-14 23:59:00,47.9,26.0,30.14,North,10,0.0,3.0,43,0.00,,,0.00,weatherlink.com 1.10,2013-04-15 03:59:00,